Time;durP1;ratioP1;P1;durP2;ratioP2;P2;SDS_P1;SDS_P2;PMS_P1;PMS_P2;Temp;Humidity;BMP_temperature;BMP_pressure;BME280_temperature;BME280_humidity;BME280_pressure;Samples;Min_cycle;Max_cycle;Signal;HPM_P1;HPM_P2
2022/01/09 00:00:31;;;;;;;34.40;22.02;;;26.10;99.90;;;;;;5072236;28;20443;-70
2022/01/09 00:02:58;;;;;;;28.25;19.27;;;26.10;99.90;;;;;;5068364;28;20091;-71
2022/01/09 00:05:26;;;;;;;36.80;20.17;;;26.10;99.90;;;;;;5072402;28;20377;-71
2022/01/09 00:07:53;;;;;;;34.22;21.75;;;26.10;99.90;;;;;;5071982;28;20424;-71
2022/01/09 00:10:20;;;;;;;33.67;20.13;;;26.00;99.90;;;;;;5071134;28;20016;-73
2022/01/09 00:12:47;;;;;;;33.45;21.00;;;26.00;99.90;;;;;;5075113;28;20100;-70
2022/01/09 00:15:14;;;;;;;31.90;18.95;;;26.00;99.90;;;;;;5075880;28;20024;-70
2022/01/09 00:17:41;;;;;;;111.22;74.85;;;26.00;99.90;;;;;;5075994;28;20024;-73
2022/01/09 00:20:10;;;;;;;32.35;21.80;;;26.10;99.90;;;;;;5075831;28;20500;-74
2022/01/09 00:22:51;;;;;;;33.08;20.83;;;26.10;99.90;;;;;;5075986;28;20024;-73
2022/01/09 00:25:24;;;;;;;27.98;19.30;;;26.10;99.90;;;;;;5075943;28;20028;-69
2022/01/09 00:27:51;;;;;;;30.67;20.55;;;26.10;99.90;;;;;;5073422;28;20419;-70
2022/01/09 00:30:21;;;;;;;36.03;19.95;;;26.10;99.90;;;;;;5075357;28;20107;-73
2022/01/09 00:32:48;;;;;;;26.17;18.77;;;26.10;99.90;;;;;;5075277;28;20029;-74
2022/01/09 00:35:16;;;;;;;30.05;19.35;;;26.10;99.90;;;;;;5073498;28;20111;-74
2022/01/09 00:37:43;;;;;;;36.88;18.92;;;26.10;99.90;;;;;;5075249;28;20265;-75
2022/01/09 00:40:12;;;;;;;33.53;18.85;;;26.20;99.90;;;;;;5071472;28;20052;-71
2022/01/09 00:42:39;;;;;;;25.75;17.48;;;26.20;99.90;;;;;;5075529;28;20024;-72
2022/01/09 00:45:07;;;;;;;29.52;17.45;;;26.20;99.90;;;;;;5073982;28;20434;-76
2022/01/09 00:47:34;;;;;;;26.77;17.35;;;26.20;99.90;;;;;;5071734;28;20385;-74
2022/01/09 00:50:00;;;;;;;32.95;18.65;;;26.30;99.90;;;;;;5075466;28;20016;-70
2022/01/09 00:52:27;;;;;;;28.42;16.63;;;26.40;99.90;;;;;;5074945;28;20008;-68
2022/01/09 00:54:54;;;;;;;29.60;16.92;;;26.40;99.90;;;;;;5074736;28;20071;-72
2022/01/09 00:57:20;;;;;;;25.25;17.45;;;26.50;99.90;;;;;;5075012;28;20469;-71
2022/01/09 00:59:47;;;;;;;27.67;18.48;;;26.50;99.90;;;;;;5074638;28;20031;-72
2022/01/09 01:02:14;;;;;;;31.40;17.45;;;26.60;99.90;;;;;;5074626;28;20039;-72
2022/01/09 01:04:41;;;;;;;23.58;17.35;;;26.60;99.90;;;;;;5074234;28;20045;-72
2022/01/09 01:07:08;;;;;;;27.23;17.55;;;26.60;99.90;;;;;;5074847;28;20104;-72
2022/01/09 01:09:34;;;;;;;29.60;16.75;;;26.60;99.90;;;;;;5074439;28;20119;-72
2022/01/09 01:12:02;;;;;;;26.02;17.98;;;26.70;99.90;;;;;;5074801;28;20073;-69
2022/01/09 01:14:31;;;;;;;24.80;16.60;;;26.70;99.90;;;;;;5074640;28;20017;-70
2022/01/09 01:16:58;;;;;;;30.70;17.83;;;26.70;99.90;;;;;;5074680;28;20021;-73
2022/01/09 01:19:25;;;;;;;34.88;18.20;;;26.60;99.90;;;;;;5074855;28;20128;-72
2022/01/09 01:21:52;;;;;;;31.50;18.13;;;26.70;99.90;;;;;;5074606;28;20021;-71
2022/01/09 01:24:20;;;;;;;24.67;16.55;;;26.70;99.90;;;;;;5074320;28;20074;-71
2022/01/09 01:26:47;;;;;;;33.70;18.67;;;26.70;99.90;;;;;;5074264;28;20066;-72
2022/01/09 01:29:15;;;;;;;28.33;17.88;;;26.70;99.90;;;;;;5074004;28;20077;-71
2022/01/09 01:31:41;;;;;;;33.30;17.77;;;26.70;99.90;;;;;;5070658;28;20020;-72
2022/01/09 01:34:08;;;;;;;33.20;20.17;;;26.70;99.90;;;;;;5073780;28;20031;-73
2022/01/09 01:36:35;;;;;;;27.70;17.17;;;26.70;99.90;;;;;;5073259;28;20040;-72
2022/01/09 01:39:02;;;;;;;27.10;17.80;;;26.70;99.90;;;;;;5074430;28;20021;-71
2022/01/09 01:41:28;;;;;;;26.73;18.92;;;26.70;99.90;;;;;;5074127;28;20040;-70
2022/01/09 01:43:55;;;;;;;37.78;19.33;;;26.70;99.90;;;;;;5073033;28;20036;-70
2022/01/09 01:46:22;;;;;;;35.67;20.50;;;26.80;99.90;;;;;;5074089;28;20021;-70
2022/01/09 01:48:49;;;;;;;33.85;21.83;;;26.90;99.90;;;;;;5073806;28;20461;-69
2022/01/09 01:51:15;;;;;;;37.33;22.08;;;26.90;99.90;;;;;;5073821;28;20029;-71
2022/01/09 01:53:43;;;;;;;38.38;23.02;;;27.00;99.90;;;;;;5074154;28;20028;-71
2022/01/09 01:56:18;;;;;;;37.45;20.23;;;27.00;99.90;;;;;;5074308;28;20111;-75
2022/01/09 01:58:45;;;;;;;24.63;15.98;;;27.10;99.90;;;;;;5073739;28;20434;-72
2022/01/09 02:01:11;;;;;;;28.65;17.17;;;27.20;99.90;;;;;;5073916;28;20107;-72
2022/01/09 02:03:38;;;;;;;23.48;13.80;;;27.30;99.90;;;;;;5073448;28;20048;-71
2022/01/09 02:06:05;;;;;;;27.05;16.17;;;27.40;99.90;;;;;;5072957;28;20503;-71
2022/01/09 02:08:33;;;;;;;22.92;15.60;;;27.60;99.90;;;;;;5073395;28;20028;-72
2022/01/09 02:11:00;;;;;;;21.75;15.93;;;27.60;99.90;;;;;;5071517;28;20408;-73
2022/01/09 02:13:26;;;;;;;34.53;18.70;;;27.60;99.90;;;;;;5073351;28;20024;-78
2022/01/09 02:15:57;;;;;;;25.20;17.02;;;27.60;99.90;;;;;;5072829;28;20066;-73
2022/01/09 02:18:24;;;;;;;36.33;24.80;;;27.70;99.90;;;;;;5072830;28;20025;-71
2022/01/09 02:20:52;;;;;;;35.83;28.25;;;27.70;99.90;;;;;;5072337;28;20024;-70
2022/01/09 02:23:19;;;;;;;38.63;29.85;;;27.80;99.90;;;;;;5072556;28;20032;-70
2022/01/09 02:25:48;;;;;;;43.95;30.63;;;27.80;99.90;;;;;;5071091;28;20469;-68
2022/01/09 02:28:16;;;;;;;36.35;24.30;;;27.80;99.90;;;;;;5072882;28;20089;-70
2022/01/09 02:30:43;;;;;;;40.15;25.15;;;27.90;99.90;;;;;;5070311;28;20028;-72
2022/01/09 02:33:14;;;;;;;29.58;20.80;;;28.10;99.90;;;;;;5072933;28;20012;-70
2022/01/09 02:35:41;;;;;;;28.73;20.90;;;28.20;99.90;;;;;;5076378;28;20020;-72
2022/01/09 02:38:08;;;;;;;37.85;24.73;;;28.20;99.90;;;;;;5076845;28;20206;-71
2022/01/09 02:40:35;;;;;;;64.03;51.00;;;28.30;99.90;;;;;;5072995;28;20021;-70
2022/01/09 02:43:03;;;;;;;122.22;85.40;;;28.30;99.90;;;;;;5072924;28;20063;-71
2022/01/09 02:45:30;;;;;;;37.05;24.60;;;28.40;99.90;;;;;;5073401;28;20029;-69
2022/01/09 02:47:59;;;;;;;56.03;39.83;;;28.30;99.90;;;;;;5073072;28;20048;-69
2022/01/09 02:52:56;;;;;;;28.20;14.52;;;28.50;99.90;;;;;;5071768;28;20033;-69
2022/01/09 02:55:25;;;;;;;43.88;29.27;;;28.50;99.90;;;;;;5072218;28;20539;-70
2022/01/09 02:57:57;;;;;;;38.25;25.70;;;28.60;99.90;;;;;;5072759;28;20116;-73
2022/01/09 03:00:25;;;;;;;;;;;28.60;99.90;;;;;;5071101;28;20447;-68
2022/01/09 03:02:52;;;;;;;35.10;21.52;;;28.60;99.90;;;;;;5071515;28;19923;-68
2022/01/09 03:05:19;;;;;;;29.55;20.85;;;28.70;99.90;;;;;;5072541;28;20572;-70
2022/01/09 03:07:46;;;;;;;37.55;22.55;;;28.70;99.90;;;;;;5073080;28;20027;-71
2022/01/09 03:10:14;;;;;;;33.20;21.75;;;28.80;99.90;;;;;;5072732;28;20017;-72
2022/01/09 03:12:41;;;;;;;27.73;17.73;;;28.90;99.90;;;;;;5073125;28;20410;-73
2022/01/09 03:15:09;;;;;;;18.85;13.10;;;28.90;99.90;;;;;;5073147;28;20020;-72
2022/01/09 03:17:36;;;;;;;24.80;16.58;;;28.90;99.90;;;;;;5072984;28;20108;-71
2022/01/09 03:20:05;;;;;;;69.40;51.90;;;29.10;99.90;;;;;;5073217;28;20036;-71
2022/01/09 03:22:32;;;;;;;25.95;18.98;;;29.30;99.90;;;;;;5073053;28;20033;-72
2022/01/09 03:24:59;;;;;;;131.60;93.05;;;29.40;99.90;;;;;;5072755;28;20035;-73
2022/01/09 03:27:25;;;;;;;42.67;30.70;;;29.30;99.90;;;;;;5072954;28;20029;-76
2022/01/09 03:29:52;;;;;;;28.60;17.42;;;29.30;99.90;;;;;;5073035;28;20035;-76
2022/01/09 03:32:19;;;;;;;36.08;18.83;;;29.30;99.90;;;;;;5072603;28;20362;-77
2022/01/09 03:34:45;;;;;;;34.70;22.70;;;29.20;99.90;;;;;;5072772;28;20025;-77
2022/01/09 03:37:12;;;;;;;33.22;24.20;;;29.10;99.90;;;;;;5072887;28;20100;-77
2022/01/09 03:39:39;;;;;;;31.33;19.63;;;29.00;99.90;;;;;;5072641;28;20051;-76
2022/01/09 03:42:06;;;;;;;31.42;18.55;;;29.00;99.90;;;;;;5072524;28;20531;-78
2022/01/09 03:44:33;;;;;;;25.27;16.02;;;29.00;99.90;;;;;;5072907;28;20032;-80
2022/01/09 03:47:00;;;;;;;23.42;14.82;;;29.10;99.90;;;;;;5075487;28;20021;-80
2022/01/09 03:49:26;;;;;;;23.48;17.20;;;29.20;99.90;;;;;;5076765;28;20414;-79
2022/01/09 03:51:55;;;;;;;26.33;17.25;;;29.20;99.90;;;;;;5076950;28;20060;-79
2022/01/09 03:54:22;;;;;;;28.77;17.33;;;29.10;99.90;;;;;;5076608;28;20059;-78
2022/01/09 03:56:50;;;;;;;29.25;17.55;;;29.00;99.90;;;;;;5076589;28;20024;-80
2022/01/09 03:59:17;;;;;;;25.63;15.10;;;29.00;99.90;;;;;;5076639;28;20028;-81
2022/01/09 04:01:44;;;;;;;27.73;16.58;;;29.00;99.90;;;;;;5076100;28;20025;-81
2022/01/09 04:04:11;;;;;;;26.50;15.73;;;29.00;99.90;;;;;;5076207;28;20043;-82
2022/01/09 04:06:48;;;;;;;18.33;13.45;;;29.00;99.90;;;;;;5076318;28;20201;-81
2022/01/09 04:09:21;;;;;;;29.40;15.70;;;29.00;99.90;;;;;;5075467;28;20021;-81
2022/01/09 04:11:48;;;;;;;25.08;15.88;;;29.10;99.90;;;;;;5074304;28;20485;-78
2022/01/09 04:14:15;;;;;;;24.52;16.25;;;29.20;99.90;;;;;;5075752;28;20032;-81
2022/01/09 04:16:43;;;;;;;29.17;16.50;;;29.30;99.90;;;;;;5075997;28;20021;-79
2022/01/09 04:19:13;;;;;;;25.88;17.02;;;29.50;99.90;;;;;;5075486;28;20024;-78
2022/01/09 04:21:41;;;;;;;20.38;15.27;;;29.50;99.90;;;;;;5074448;28;20399;-77
2022/01/09 04:24:09;;;;;;;23.45;17.05;;;29.60;99.90;;;;;;5074257;28;20276;-78
2022/01/09 04:26:36;;;;;;;23.35;13.85;;;29.60;99.90;;;;;;5074852;28;20024;-79
2022/01/09 04:29:04;;;;;;;21.30;15.10;;;29.70;99.90;;;;;;5072605;28;20098;-74
2022/01/09 04:31:31;;;;;;;25.50;14.85;;;29.80;99.90;;;;;;5074804;28;20037;-77
2022/01/09 04:33:57;;;;;;;18.95;11.68;;;29.70;99.90;;;;;;5073170;28;20025;-78
2022/01/09 04:36:24;;;;;;;19.55;11.32;;;29.60;99.90;;;;;;5073407;28;20017;-77
2022/01/09 04:38:52;;;;;;;29.85;13.48;;;29.60;99.90;;;;;;5074393;28;20149;-81
2022/01/09 04:41:18;;;;;;;18.00;12.18;;;29.60;99.90;;;;;;5074746;28;20025;-78
2022/01/09 04:43:45;;;;;;;22.48;13.85;;;29.70;99.90;;;;;;5074777;28;20108;-82
2022/01/09 04:46:19;;;;;;;25.50;12.07;;;29.60;99.90;;;;;;5074736;28;20032;-80
2022/01/09 04:48:47;;;;;;;27.00;13.30;;;29.60;99.90;;;;;;5073013;28;20024;-81
2022/01/09 04:51:15;;;;;;;21.25;11.48;;;29.70;99.90;;;;;;5074200;28;20552;-76
2022/01/09 04:53:42;;;;;;;20.05;12.75;;;29.80;99.90;;;;;;5074307;28;20416;-77
2022/01/09 04:56:08;;;;;;;18.52;11.30;;;29.80;99.90;;;;;;5073960;28;20017;-79
2022/01/09 04:58:35;;;;;;;15.40;10.02;;;29.90;99.90;;;;;;5073371;28;20020;-75
2022/01/09 05:01:02;;;;;;;19.00;11.98;;;30.00;99.90;;;;;;5073737;28;20025;-74
2022/01/09 05:03:28;;;;;;;15.55;10.35;;;30.10;99.90;;;;;;5074251;28;20074;-74
2022/01/09 05:05:55;;;;;;;17.40;10.07;;;30.20;99.90;;;;;;5073860;28;20493;-73
2022/01/09 05:08:22;;;;;;;21.58;10.65;;;30.30;99.90;;;;;;5075046;28;20432;-73
2022/01/09 05:10:48;;;;;;;30.17;19.08;;;30.30;99.90;;;;;;5074506;28;20032;-77
2022/01/09 05:13:15;;;;;;;33.25;23.65;;;30.40;99.90;;;;;;5075180;28;20107;-72
2022/01/09 05:15:42;;;;;;;21.05;14.77;;;30.30;99.90;;;;;;5074981;28;20029;-75
2022/01/09 05:18:14;;;;;;;25.35;15.63;;;30.40;99.90;;;;;;5074968;28;20041;-75
2022/01/09 05:20:42;;;;;;;20.08;13.10;;;30.50;99.90;;;;;;5074786;28;20024;-76
2022/01/09 05:23:09;;;;;;;20.50;12.75;;;30.40;99.90;;;;;;5074931;28;20025;-77
2022/01/09 05:25:36;;;;;;;28.75;16.00;;;30.30;99.90;;;;;;5074684;28;20090;-75
2022/01/09 05:28:03;;;;;;;22.15;12.73;;;30.30;99.90;;;;;;5074671;28;20017;-71
2022/01/09 05:30:29;;;;;;;20.13;11.32;;;30.30;99.90;;;;;;5074997;28;20032;-72
2022/01/09 05:32:56;;;;;;;15.52;9.82;;;30.30;99.90;;;;;;5074670;28;20222;-70
2022/01/09 05:35:25;;;;;;;19.80;10.25;;;30.40;99.90;;;;;;5074758;28;20052;-68
2022/01/09 05:37:52;;;;;;;17.10;10.20;;;30.50;99.90;;;;;;5074731;28;20029;-72
2022/01/09 05:40:19;;;;;;;15.73;11.45;;;30.50;99.90;;;;;;5074631;28;20055;-71
2022/01/09 05:42:47;;;;;;;14.05;9.10;;;30.50;99.90;;;;;;5074646;28;20195;-70
2022/01/09 05:45:17;;;;;;;9.82;7.85;;;30.50;99.90;;;;;;5074368;28;20091;-72
2022/01/09 05:47:45;;;;;;;18.50;8.93;;;30.60;99.90;;;;;;5074521;28;20047;-72
2022/01/09 05:50:11;;;;;;;19.48;9.50;;;30.70;99.90;;;;;;5074227;28;20388;-70
2022/01/09 05:52:38;;;;;;;24.73;12.77;;;30.70;99.90;;;;;;5074558;28;20031;-74
2022/01/09 05:55:05;;;;;;;19.92;10.85;;;30.20;99.90;;;;;;5074210;28;20028;-79
2022/01/09 05:57:32;;;;;;;15.93;10.88;;;29.90;99.90;;;;;;5073963;28;20021;-77
2022/01/09 05:59:59;;;;;;;19.77;12.07;;;29.80;99.90;;;;;;5073610;28;20060;-79
2022/01/09 06:02:26;;;;;;;18.83;10.57;;;29.70;99.90;;;;;;5072891;28;20504;-80
2022/01/09 06:04:53;;;;;;;25.50;12.75;;;29.70;99.90;;;;;;5073149;28;20040;-73
2022/01/09 06:07:19;;;;;;;22.05;12.98;;;29.40;99.90;;;;;;5073272;28;20021;-76
2022/01/09 06:09:46;;;;;;;25.15;15.55;;;29.30;99.90;;;;;;5072342;28;20028;-72
2022/01/09 06:12:13;;;;;;;21.65;14.43;;;29.40;99.90;;;;;;5073347;28;20500;-71
2022/01/09 06:14:39;;;;;;;32.35;12.85;;;29.40;99.90;;;;;;5073808;28;20043;-81
2022/01/09 06:17:06;;;;;;;13.07;9.98;;;29.50;99.90;;;;;;5073854;28;20020;-75
2022/01/09 06:19:33;;;;;;;12.90;9.55;;;29.40;99.90;;;;;;5073486;28;20028;-75
2022/01/09 06:22:00;;;;;;;10.40;8.68;;;29.30;99.90;;;;;;5073541;28;20477;-74
2022/01/09 06:24:26;;;;;;;13.43;9.38;;;29.00;99.90;;;;;;5071969;28;20035;-76
2022/01/09 06:26:53;;;;;;;11.45;8.32;;;29.00;99.90;;;;;;5073584;28;20052;-76
2022/01/09 06:29:19;;;;;;;14.75;8.73;;;28.90;99.90;;;;;;5073830;28;20432;-77
2022/01/09 06:31:46;;;;;;;14.18;8.75;;;28.80;99.90;;;;;;5068788;28;20056;-78
2022/01/09 06:34:13;;;;;;;10.68;7.65;;;28.70;99.90;;;;;;5069295;28;20028;-78
2022/01/09 06:36:41;;;;;;;14.27;8.48;;;28.70;99.90;;;;;;5073148;28;20070;-80
2022/01/09 06:39:08;;;;;;;10.90;8.02;;;28.70;99.90;;;;;;5074588;28;20099;-79
2022/01/09 06:41:34;;;;;;;14.93;8.48;;;28.70;99.90;;;;;;5071869;28;20108;-79
2022/01/09 06:44:01;;;;;;;15.15;8.88;;;28.80;99.90;;;;;;5072625;28;20420;-78
2022/01/09 06:46:28;;;;;;;15.25;9.05;;;28.80;99.90;;;;;;5072884;28;20469;-78
2022/01/09 06:48:55;;;;;;;12.77;8.82;;;28.90;99.90;;;;;;5072507;28;20030;-80
2022/01/09 06:51:22;;;;;;;13.55;9.40;;;29.00;99.90;;;;;;5072157;28;20024;-74
2022/01/09 06:53:48;;;;;;;9.57;7.93;;;29.20;99.90;;;;;;5072711;28;20029;-80
2022/01/09 06:56:15;;;;;;;18.27;9.18;;;29.40;99.90;;;;;;5072930;28;20021;-76
2022/01/09 06:58:41;;;;;;;13.32;7.95;;;29.40;99.90;;;;;;5072859;28;20023;-76
2022/01/09 07:01:08;;;;;;;15.05;8.80;;;29.50;99.90;;;;;;5073232;28;20013;-75
2022/01/09 07:03:35;;;;;;;12.88;8.27;;;29.60;99.90;;;;;;5071903;28;20090;-80
2022/01/09 07:06:01;;;;;;;12.70;8.80;;;29.70;99.90;;;;;;5072537;28;20489;-76
2022/01/09 07:08:31;;;;;;;13.60;8.05;;;29.80;99.90;;;;;;5072810;28;20154;-74
2022/01/09 07:10:58;;;;;;;14.57;8.10;;;29.80;99.90;;;;;;5070748;28;20363;-76
2022/01/09 07:13:24;;;;;;;17.90;8.43;;;29.90;99.90;;;;;;5070183;28;20021;-73
2022/01/09 07:15:51;;;;;;;12.15;8.15;;;29.90;99.90;;;;;;5070177;28;20025;-74
2022/01/09 07:18:18;;;;;;;22.52;11.15;;;30.00;99.90;;;;;;5072103;28;20373;-72
2022/01/09 07:20:45;;;;;;;16.38;8.55;;;30.10;99.90;;;;;;5074860;28;20099;-74
2022/01/09 07:23:11;;;;;;;14.15;8.23;;;30.20;99.90;;;;;;5076978;28;20047;-74
2022/01/09 07:25:38;;;;;;;10.70;7.32;;;30.30;99.90;;;;;;5078037;28;20477;-74
2022/01/09 07:28:05;;;;;;;12.05;7.63;;;30.30;99.90;;;;;;5076422;28;20106;-77
2022/01/09 07:30:31;;;;;;;15.63;9.93;;;30.30;99.90;;;;;;5077101;28;20104;-75
2022/01/09 07:32:58;;;;;;;15.02;10.10;;;30.30;99.90;;;;;;5077056;28;20020;-74
2022/01/09 07:35:25;;;;;;;13.48;9.52;;;30.40;99.90;;;;;;5076767;28;20112;-74
2022/01/09 07:37:52;;;;;;;25.15;15.77;;;30.40;99.90;;;;;;5076911;28;20099;-75
2022/01/09 07:40:20;;;;;;;18.17;11.70;;;30.40;99.90;;;;;;5075678;28;20534;-73
2022/01/09 07:42:47;;;;;;;12.43;8.50;;;30.50;99.90;;;;;;5075735;28;20036;-71
2022/01/09 07:45:16;;;;;;;20.98;14.40;;;30.60;99.90;;;;;;5067125;28;20561;-73
2022/01/09 07:47:43;;;;;;;23.23;13.13;;;30.60;99.90;;;;;;5073283;28;20095;-73
2022/01/09 07:50:11;;;;;;;18.33;11.07;;;30.60;99.90;;;;;;5074345;28;20029;-73
2022/01/09 07:52:38;;;;;;;14.43;8.88;;;30.60;99.90;;;;;;5076050;28;20377;-73
2022/01/09 07:55:07;;;;;;;12.93;9.48;;;30.70;99.90;;;;;;5075733;28;20362;-72
2022/01/09 07:57:34;;;;;;;21.70;14.35;;;30.70;99.90;;;;;;5076500;28;20024;-73
2022/01/09 08:00:03;;;;;;;22.50;13.48;;;30.70;99.90;;;;;;5075620;28;20086;-72
2022/01/09 08:02:30;;;;;;;19.35;12.30;;;30.70;99.90;;;;;;5075747;28;20478;-75
2022/01/09 08:04:56;;;;;;;17.30;10.07;;;30.60;99.90;;;;;;5075878;28;20037;-73
2022/01/09 08:07:23;;;;;;;16.35;9.75;;;30.60;99.90;;;;;;5076390;28;20487;-73
2022/01/09 08:09:50;;;;;;;14.15;9.25;;;30.70;99.90;;;;;;5076327;28;20062;-74
2022/01/09 08:12:16;;;;;;;16.35;10.13;;;30.70;99.90;;;;;;5075767;28;20123;-73
2022/01/09 08:14:45;;;;;;;17.15;8.80;;;30.70;99.90;;;;;;5072199;28;20025;-74
2022/01/09 08:17:12;;;;;;;11.20;8.27;;;30.50;99.90;;;;;;5074872;28;20025;-74
2022/01/09 08:19:40;;;;;;;18.15;10.63;;;30.30;99.90;;;;;;5074636;28;20028;-73
2022/01/09 08:22:08;;;;;;;16.27;9.90;;;30.20;99.90;;;;;;5075357;28;20419;-75
2022/01/09 08:24:36;;;;;;;14.63;9.77;;;30.00;99.90;;;;;;5076075;28;20381;-74
2022/01/09 08:27:04;;;;;;;12.77;9.48;;;30.00;99.90;;;;;;5075722;28;20385;-72
2022/01/09 08:29:31;;;;;;;19.58;10.30;;;29.90;99.90;;;;;;5075433;28;20021;-70
2022/01/09 08:31:58;;;;;;;14.48;9.45;;;29.90;99.90;;;;;;5074629;28;20024;-72
2022/01/09 08:34:24;;;;;;;14.20;9.75;;;29.80;99.90;;;;;;5075433;28;20025;-70
2022/01/09 08:36:51;;;;;;;12.75;9.13;;;29.80;99.90;;;;;;5074872;28;20486;-71
2022/01/09 08:39:18;;;;;;;13.13;8.68;;;29.70;99.90;;;;;;5075129;28;20017;-74
2022/01/09 08:41:45;;;;;;;16.75;9.63;;;29.70;99.90;;;;;;5075495;28;20028;-72
2022/01/09 08:44:12;;;;;;;12.15;8.43;;;29.60;99.90;;;;;;5075856;28;20021;-72
2022/01/09 08:46:39;;;;;;;12.60;7.72;;;29.60;99.90;;;;;;5069146;28;20052;-73
2022/01/09 08:49:06;;;;;;;14.20;8.35;;;29.50;99.90;;;;;;5073809;28;20485;-72
2022/01/09 08:51:33;;;;;;;13.23;7.47;;;29.50;99.90;;;;;;5075278;28;20036;-71
2022/01/09 08:54:01;;;;;;;10.05;6.72;;;29.40;99.90;;;;;;5075003;28;20029;-73
2022/01/09 08:56:28;;;;;;;11.68;8.52;;;29.20;99.90;;;;;;5074925;28;20028;-72
2022/01/09 08:58:57;;;;;;;9.57;6.30;;;29.10;99.90;;;;;;5075126;28;20056;-71
2022/01/09 09:01:24;;;;;;;8.13;6.35;;;29.10;99.90;;;;;;5075296;28;20028;-71
2022/01/09 09:03:51;;;;;;;11.55;7.60;;;28.90;99.90;;;;;;5074671;28;20094;-74
2022/01/09 09:06:18;;;;;;;16.85;8.13;;;28.80;99.90;;;;;;5074969;28;20354;-71
2022/01/09 09:08:44;;;;;;;12.77;6.57;;;28.80;99.90;;;;;;5075496;28;20414;-71
2022/01/09 09:11:12;;;;;;;8.30;5.30;;;28.60;99.90;;;;;;5075212;28;20039;-75
2022/01/09 09:13:39;;;;;;;10.55;5.50;;;28.50;99.90;;;;;;5075290;28;20107;-72
2022/01/09 09:16:08;;;;;;;8.93;6.00;;;28.40;99.90;;;;;;5068362;28;20335;-73
2022/01/09 09:18:35;;;;;;;14.52;7.53;;;28.40;99.90;;;;;;5072472;28;20466;-74
2022/01/09 09:21:02;;;;;;;41.25;26.80;;;28.30;99.90;;;;;;5073334;28;20021;-76
2022/01/09 09:23:28;;;;;;;9.15;4.85;;;28.30;99.90;;;;;;5070714;28;20017;-75
2022/01/09 09:25:55;;;;;;;8.00;5.07;;;28.20;99.90;;;;;;5074316;28;20039;-74
2022/01/09 09:28:22;;;;;;;11.55;6.30;;;28.20;99.90;;;;;;5074529;28;20020;-75
2022/01/09 09:30:48;;;;;;;15.10;6.68;;;28.10;99.90;;;;;;5075008;28;20066;-74
2022/01/09 09:33:16;;;;;;;14.45;7.82;;;28.10;99.90;;;;;;5074123;28;20017;-75
2022/01/09 09:35:43;;;;;;;14.32;8.15;;;28.10;99.90;;;;;;5074538;28;20074;-74
2022/01/09 09:38:10;;;;;;;9.32;6.32;;;28.10;99.90;;;;;;5074470;28;20017;-74
2022/01/09 09:40:36;;;;;;;142.43;115.93;;;28.00;99.90;;;;;;5074103;28;20078;-73
2022/01/09 09:43:03;;;;;;;81.50;58.30;;;27.90;99.90;;;;;;5073583;28;20513;-72
2022/01/09 09:45:30;;;;;;;116.40;78.35;;;28.00;99.90;;;;;;5074014;28;20103;-74
2022/01/09 09:47:57;;;;;;;18.98;12.90;;;28.00;99.90;;;;;;5068038;28;20027;-74
2022/01/09 09:50:24;;;;;;;18.85;12.00;;;28.00;99.90;;;;;;5072769;28;20028;-75
2022/01/09 09:52:51;;;;;;;15.88;10.25;;;28.00;99.90;;;;;;5073805;28;20380;-76
2022/01/09 09:55:19;;;;;;;16.98;10.23;;;28.00;99.90;;;;;;5069867;28;20016;-77
2022/01/09 09:57:46;;;;;;;16.27;8.70;;;28.00;99.90;;;;;;5074038;28;20025;-74
2022/01/09 10:00:16;;;;;;;10.70;7.95;;;28.00;99.90;;;;;;5073686;28;20035;-74
2022/01/09 10:02:45;;;;;;;9.07;6.78;;;28.00;99.90;;;;;;5072033;28;20021;-71
2022/01/09 10:05:13;;;;;;;9.90;7.70;;;28.00;99.90;;;;;;5072709;28;20078;-73
2022/01/09 10:07:41;;;;;;;11.15;8.05;;;28.00;99.90;;;;;;5071449;28;20131;-74
2022/01/09 10:10:14;;;;;;;15.50;8.00;;;28.10;99.90;;;;;;5071723;28;20489;-75
2022/01/09 10:12:42;;;;;;;16.70;9.45;;;28.10;99.90;;;;;;5071677;28;20024;-77
2022/01/09 10:15:12;;;;;;;16.58;10.88;;;28.10;99.90;;;;;;5073463;28;20040;-76
2022/01/09 10:17:45;;;;;;;20.67;12.15;;;28.20;99.90;;;;;;5066481;28;20027;-73
2022/01/09 10:20:17;;;;;;;21.33;13.75;;;28.20;99.90;;;;;;5072984;28;20027;-74
2022/01/09 10:22:47;;;;;;;49.97;30.83;;;28.10;99.90;;;;;;5074593;28;20031;-74
2022/01/09 10:25:38;;;;;;;83.57;62.22;;;28.20;99.90;;;;;;5077456;28;20032;-73
2022/01/09 10:28:16;;;;;;;64.60;47.53;;;28.10;99.90;;;;;;5077711;28;20028;-75
2022/01/09 10:30:46;;;;;;;35.33;29.10;;;28.20;99.90;;;;;;5072392;28;20417;-72
2022/01/09 10:33:25;;;;;;;33.47;21.15;;;28.20;99.90;;;;;;5072449;28;20027;-73
2022/01/09 10:35:51;;;;;;;23.98;17.42;;;28.20;99.90;;;;;;5072088;28;20027;-73
2022/01/09 10:38:22;;;;;;;27.25;16.17;;;28.20;99.90;;;;;;5072577;28;20143;-73
2022/01/09 10:40:54;;;;;;;21.48;15.40;;;28.10;99.90;;;;;;5070132;28;20012;-74
2022/01/09 10:43:32;;;;;;;46.25;27.20;;;28.10;99.90;;;;;;5071076;28;20133;-73
2022/01/09 10:45:59;;;;;;;26.00;15.20;;;28.10;99.90;;;;;;5072778;28;20016;-74
2022/01/09 10:48:41;;;;;;;40.63;26.73;;;28.10;99.90;;;;;;5070795;28;20032;-72
2022/01/09 10:51:11;;;;;;;31.85;19.60;;;28.10;99.90;;;;;;5071636;28;20020;-72
2022/01/09 10:53:40;;;;;;;35.13;20.92;;;28.10;99.90;;;;;;5071648;28;20032;-73
2022/01/09 10:56:16;;;;;;;46.30;26.52;;;28.10;99.90;;;;;;5069782;28;20017;-73
2022/01/09 10:58:44;;;;;;;59.55;29.90;;;28.30;99.90;;;;;;5072443;28;20050;-76
2022/01/09 11:01:13;;;;;;;63.35;36.33;;;28.30;99.90;;;;;;5069277;28;20099;-73
2022/01/09 11:03:42;;;;;;;52.50;36.40;;;28.30;99.90;;;;;;5071314;28;20051;-70
2022/01/09 11:06:13;;;;;;;41.05;26.50;;;28.20;99.90;;;;;;5091973;28;21632;-73
2022/01/09 11:08:41;;;;;;;37.03;24.65;;;28.10;99.90;;;;;;5092520;28;20039;-71
2022/01/09 11:11:18;;;;;;;55.25;36.78;;;28.10;99.90;;;;;;5092962;28;20031;-70
2022/01/09 11:13:47;;;;;;;47.40;31.33;;;28.10;99.90;;;;;;5093115;28;20071;-69
2022/01/09 11:18:57;;;;;;;53.53;34.95;;;28.20;99.90;;;;;;5089841;28;20035;-70
2022/01/09 11:21:24;;;;;;;65.03;44.78;;;28.20;99.90;;;;;;5093370;28;20063;-70
2022/01/09 11:24:18;;;;;;;70.90;44.28;;;28.20;99.90;;;;;;5092386;28;20510;-69
2022/01/09 11:27:08;;;;;;;73.03;44.83;;;28.20;99.90;;;;;;5090618;28;20032;-71
2022/01/09 11:29:58;;;;;;;171.63;116.93;;;28.20;99.90;;;;;;5088933;28;20020;-71
2022/01/09 11:32:48;;;;;;;251.27;184.05;;;28.20;99.90;;;;;;5091366;28;20578;-71
2022/01/09 11:35:26;;;;;;;109.63;80.65;;;28.10;99.90;;;;;;5088340;28;20032;-70
2022/01/09 11:37:56;;;;;;;88.20;57.15;;;28.10;99.90;;;;;;5092454;28;20428;-68
2022/01/09 11:40:33;;;;;;;369.02;245.75;;;28.10;99.90;;;;;;5092310;28;20987;-70
2022/01/09 11:43:05;;;;;;;105.25;73.30;;;28.10;99.90;;;;;;5089432;28;20028;-70
2022/01/09 11:45:47;;;;;;;101.65;67.38;;;28.00;99.90;;;;;;5090206;28;20066;-69
2022/01/09 11:48:16;;;;;;;93.80;63.42;;;28.00;99.90;;;;;;5089335;28;20427;-69
2022/01/09 11:51:06;;;;;;;86.55;57.88;;;28.00;99.90;;;;;;5090942;28;20040;-71
2022/01/09 11:53:57;;;;;;;99.43;61.20;;;28.00;99.90;;;;;;5088849;28;20062;-69
2022/01/09 11:56:36;;;;;;;95.30;61.42;;;27.90;99.90;;;;;;5089276;28;20024;-67
2022/01/09 11:59:27;;;;;;;76.43;48.90;;;27.90;99.90;;;;;;5088919;28;20016;-69
2022/01/09 12:01:59;;;;;;;54.78;35.67;;;27.80;99.90;;;;;;5089289;28;20137;-70
2022/01/09 12:04:33;;;;;;;91.75;67.85;;;27.70;99.90;;;;;;5088378;28;20047;-69
2022/01/09 12:07:03;;;;;;;188.98;142.95;;;27.70;99.90;;;;;;5090822;28;20031;-71
2022/01/09 12:09:40;;;;;;;165.32;112.80;;;27.80;99.90;;;;;;5090750;28;20387;-71
2022/01/09 12:12:11;;;;;;;55.22;39.20;;;27.80;99.90;;;;;;5093800;28;20073;-72
2022/01/09 12:17:26;;;;;;;160.02;118.05;;;27.70;99.90;;;;;;5094268;28;20032;-72
2022/01/09 12:20:05;;;;;;;80.75;59.53;;;27.70;99.90;;;;;;5094025;28;20068;-74
2022/01/09 12:22:45;;;;;;;58.08;42.22;;;27.70;99.90;;;;;;5093760;28;20373;-71
2022/01/09 12:25:28;;;;;;;65.05;48.13;;;27.80;99.90;;;;;;5094841;28;20012;-72
2022/01/09 12:28:14;;;;;;;89.63;62.13;;;27.80;99.90;;;;;;5091123;28;20290;-70
2022/01/09 12:30:41;;;;;;;85.72;63.28;;;27.80;99.90;;;;;;5093113;28;20043;-73
2022/01/09 12:33:13;;;;;;;83.72;59.15;;;27.80;99.90;;;;;;5093622;28;20504;-69
2022/01/09 12:35:51;;;;;;;95.88;60.13;;;27.80;99.90;;;;;;5091984;28;20040;-70
2022/01/09 12:38:21;;;;;;;75.60;53.13;;;27.80;99.90;;;;;;5093689;28;20016;-73
2022/01/09 12:40:56;;;;;;;69.55;53.97;;;27.70;99.90;;;;;;5094673;28;20016;-67
2022/01/09 12:43:24;;;;;;;72.28;51.63;;;27.70;99.90;;;;;;5094425;28;20039;-71
2022/01/09 12:45:52;;;;;;;71.45;53.00;;;27.60;99.90;;;;;;5094379;28;20012;-69